sensor_id;sensor_type;location;lat;lon;timestamp;P1;durP1;ratioP1;P2;durP2;ratioP2
54193;SDS011;40102;50.906;6.972;2023-11-19T00:02:20;1.13;;;0.65;;
54193;SDS011;40102;50.906;6.972;2023-11-19T00:04:46;1.60;;;0.98;;
54193;SDS011;40102;50.906;6.972;2023-11-19T00:07:12;1.25;;;0.60;;
54193;SDS011;40102;50.906;6.972;2023-11-19T00:09:39;1.52;;;0.70;;
54193;SDS011;40102;50.906;6.972;2023-11-19T00:12:05;2.88;;;0.40;;
54193;SDS011;40102;50.906;6.972;2023-11-19T00:14:31;0.45;;;0.43;;
54193;SDS011;40102;50.906;6.972;2023-11-19T00:16:56;1.17;;;1.05;;
54193;SDS011;40102;50.906;6.972;2023-11-19T00:19:22;0.65;;;0.50;;
54193;SDS011;40102;50.906;6.972;2023-11-19T00:21:47;0.90;;;0.57;;
54193;SDS011;40102;50.906;6.972;2023-11-19T00:24:13;0.30;;;0.30;;
54193;SDS011;40102;50.906;6.972;2023-11-19T00:26:41;0.65;;;0.40;;
54193;SDS011;40102;50.906;6.972;2023-11-19T00:29:07;1.75;;;0.40;;
54193;SDS011;40102;50.906;6.972;2023-11-19T00:31:32;1.02;;;0.40;;
54193;SDS011;40102;50.906;6.972;2023-11-19T00:33:58;1.48;;;0.50;;
54193;SDS011;40102;50.906;6.972;2023-11-19T00:36:23;1.05;;;0.50;;
54193;SDS011;40102;50.906;6.972;2023-11-19T00:38:49;0.70;;;0.32;;
54193;SDS011;40102;50.906;6.972;2023-11-19T00:41:15;0.77;;;0.40;;
54193;SDS011;40102;50.906;6.972;2023-11-19T00:43:42;0.57;;;0.40;;
54193;SDS011;40102;50.906;6.972;2023-11-19T00:46:07;2.75;;;0.40;;
54193;SDS011;40102;50.906;6.972;2023-11-19T00:48:33;0.82;;;0.50;;
54193;SDS011;40102;50.906;6.972;2023-11-19T00:50:58;0.52;;;0.30;;
54193;SDS011;40102;50.906;6.972;2023-11-19T00:53:27;0.68;;;0.40;;
54193;SDS011;40102;50.906;6.972;2023-11-19T00:55:52;0.82;;;0.60;;
54193;SDS011;40102;50.906;6.972;2023-11-19T00:58:18;0.45;;;0.45;;
54193;SDS011;40102;50.906;6.972;2023-11-19T01:00:43;0.88;;;0.50;;
54193;SDS011;40102;50.906;6.972;2023-11-19T01:03:10;1.05;;;0.40;;
54193;SDS011;40102;50.906;6.972;2023-11-19T01:05:36;2.88;;;0.80;;
54193;SDS011;40102;50.906;6.972;2023-11-19T01:08:02;0.32;;;0.30;;
54193;SDS011;40102;50.906;6.972;2023-11-19T01:10:29;0.52;;;0.30;;
54193;SDS011;40102;50.906;6.972;2023-11-19T01:12:55;0.90;;;0.40;;
54193;SDS011;40102;50.906;6.972;2023-11-19T01:15:20;1.33;;;0.60;;
54193;SDS011;40102;50.906;6.972;2023-11-19T01:17:47;0.73;;;0.50;;
54193;SDS011;40102;50.906;6.972;2023-11-19T01:20:13;0.30;;;0.30;;
54193;SDS011;40102;50.906;6.972;2023-11-19T01:22:39;0.30;;;0.30;;
54193;SDS011;40102;50.906;6.972;2023-11-19T01:25:05;0.45;;;0.30;;
54193;SDS011;40102;50.906;6.972;2023-11-19T01:27:31;1.05;;;0.60;;
54193;SDS011;40102;50.906;6.972;2023-11-19T01:29:56;1.17;;;0.50;;
54193;SDS011;40102;50.906;6.972;2023-11-19T01:32:22;0.98;;;0.50;;
54193;SDS011;40102;50.906;6.972;2023-11-19T01:34:49;2.22;;;0.70;;
54193;SDS011;40102;50.906;6.972;2023-11-19T01:37:16;0.50;;;0.30;;
54193;SDS011;40102;50.906;6.972;2023-11-19T01:39:44;0.73;;;0.40;;
54193;SDS011;40102;50.906;6.972;2023-11-19T01:42:10;1.17;;;0.45;;
54193;SDS011;40102;50.906;6.972;2023-11-19T01:44:37;1.70;;;0.68;;
54193;SDS011;40102;50.906;6.972;2023-11-19T01:47:02;1.27;;;0.50;;
54193;SDS011;40102;50.906;6.972;2023-11-19T01:49:29;1.23;;;0.50;;
54193;SDS011;40102;50.906;6.972;2023-11-19T01:51:57;1.75;;;0.55;;
54193;SDS011;40102;50.906;6.972;2023-11-19T01:54:24;1.05;;;0.60;;
54193;SDS011;40102;50.906;6.972;2023-11-19T01:56:52;0.65;;;0.50;;
54193;SDS011;40102;50.906;6.972;2023-11-19T01:59:21;2.63;;;0.77;;
54193;SDS011;40102;50.906;6.972;2023-11-19T02:01:51;4.57;;;0.80;;
54193;SDS011;40102;50.906;6.972;2023-11-19T02:04:19;1.17;;;0.68;;
54193;SDS011;40102;50.906;6.972;2023-11-19T02:06:48;4.75;;;0.80;;
54193;SDS011;40102;50.906;6.972;2023-11-19T02:09:17;3.33;;;0.75;;
54193;SDS011;40102;50.906;6.972;2023-11-19T02:11:44;6.78;;;1.02;;
54193;SDS011;40102;50.906;6.972;2023-11-19T02:14:12;2.97;;;0.80;;
54193;SDS011;40102;50.906;6.972;2023-11-19T02:16:38;5.00;;;0.90;;
54193;SDS011;40102;50.906;6.972;2023-11-19T02:19:03;4.82;;;0.90;;
54193;SDS011;40102;50.906;6.972;2023-11-19T02:21:31;3.90;;;1.10;;
54193;SDS011;40102;50.906;6.972;2023-11-19T02:23:56;8.13;;;1.20;;
54193;SDS011;40102;50.906;6.972;2023-11-19T02:28:58;3.05;;;1.05;;
54193;SDS011;40102;50.906;6.972;2023-11-19T02:31:23;4.93;;;1.02;;
54193;SDS011;40102;50.906;6.972;2023-11-19T02:33:49;9.35;;;1.20;;
54193;SDS011;40102;50.906;6.972;2023-11-19T02:36:15;2.38;;;0.95;;
54193;SDS011;40102;50.906;6.972;2023-11-19T02:38:40;4.53;;;0.95;;
54193;SDS011;40102;50.906;6.972;2023-11-19T02:41:06;2.58;;;0.93;;
54193;SDS011;40102;50.906;6.972;2023-11-19T02:43:32;4.68;;;0.90;;
54193;SDS011;40102;50.906;6.972;2023-11-19T02:46:02;5.88;;;1.23;;
54193;SDS011;40102;50.906;6.972;2023-11-19T02:48:28;5.72;;;0.80;;
54193;SDS011;40102;50.906;6.972;2023-11-19T02:50:54;5.18;;;0.85;;
54193;SDS011;40102;50.906;6.972;2023-11-19T02:53:19;6.90;;;1.30;;
54193;SDS011;40102;50.906;6.972;2023-11-19T02:55:47;6.75;;;1.38;;
54193;SDS011;40102;50.906;6.972;2023-11-19T02:58:15;6.93;;;1.27;;
54193;SDS011;40102;50.906;6.972;2023-11-19T03:00:48;11.68;;;1.10;;
54193;SDS011;40102;50.906;6.972;2023-11-19T03:03:38;8.48;;;1.40;;
54193;SDS011;40102;50.906;6.972;2023-11-19T03:06:07;10.10;;;1.33;;
54193;SDS011;40102;50.906;6.972;2023-11-19T03:08:35;15.18;;;1.52;;
54193;SDS011;40102;50.906;6.972;2023-11-19T03:11:00;7.63;;;1.40;;
54193;SDS011;40102;50.906;6.972;2023-11-19T03:13:26;10.35;;;1.65;;
54193;SDS011;40102;50.906;6.972;2023-11-19T03:15:52;7.43;;;1.50;;
54193;SDS011;40102;50.906;6.972;2023-11-19T03:18:18;8.25;;;1.60;;
54193;SDS011;40102;50.906;6.972;2023-11-19T03:20:45;9.65;;;1.30;;
54193;SDS011;40102;50.906;6.972;2023-11-19T03:23:17;7.03;;;1.20;;
54193;SDS011;40102;50.906;6.972;2023-11-19T03:25:43;4.40;;;1.33;;
54193;SDS011;40102;50.906;6.972;2023-11-19T03:28:11;9.50;;;1.65;;
54193;SDS011;40102;50.906;6.972;2023-11-19T03:30:37;6.82;;;1.38;;
54193;SDS011;40102;50.906;6.972;2023-11-19T03:33:03;9.63;;;1.85;;
54193;SDS011;40102;50.906;6.972;2023-11-19T03:35:28;6.05;;;1.50;;
54193;SDS011;40102;50.906;6.972;2023-11-19T03:37:55;10.25;;;1.90;;
54193;SDS011;40102;50.906;6.972;2023-11-19T03:40:20;8.80;;;2.03;;
54193;SDS011;40102;50.906;6.972;2023-11-19T03:42:46;8.80;;;1.45;;
54193;SDS011;40102;50.906;6.972;2023-11-19T03:45:12;8.52;;;1.50;;
54193;SDS011;40102;50.906;6.972;2023-11-19T03:47:37;10.23;;;1.55;;
54193;SDS011;40102;50.906;6.972;2023-11-19T03:50:03;12.93;;;2.30;;
54193;SDS011;40102;50.906;6.972;2023-11-19T03:52:30;4.35;;;1.30;;
54193;SDS011;40102;50.906;6.972;2023-11-19T03:54:55;11.50;;;2.13;;
54193;SDS011;40102;50.906;6.972;2023-11-19T03:57:22;8.55;;;2.13;;
54193;SDS011;40102;50.906;6.972;2023-11-19T03:59:48;7.95;;;1.65;;
54193;SDS011;40102;50.906;6.972;2023-11-19T04:02:13;8.57;;;1.58;;
54193;SDS011;40102;50.906;6.972;2023-11-19T04:04:42;10.57;;;1.63;;
54193;SDS011;40102;50.906;6.972;2023-11-19T04:07:07;8.98;;;1.60;;
54193;SDS011;40102;50.906;6.972;2023-11-19T04:09:33;8.50;;;1.60;;
54193;SDS011;40102;50.906;6.972;2023-11-19T04:11:59;4.80;;;1.08;;
54193;SDS011;40102;50.906;6.972;2023-11-19T04:14:25;5.60;;;1.33;;
54193;SDS011;40102;50.906;6.972;2023-11-19T04:16:51;11.77;;;1.83;;
54193;SDS011;40102;50.906;6.972;2023-11-19T04:19:17;5.95;;;1.20;;
54193;SDS011;40102;50.906;6.972;2023-11-19T04:21:42;4.57;;;1.02;;
54193;SDS011;40102;50.906;6.972;2023-11-19T04:24:08;8.07;;;1.25;;
54193;SDS011;40102;50.906;6.972;2023-11-19T04:26:40;6.90;;;1.30;;
54193;SDS011;40102;50.906;6.972;2023-11-19T04:29:10;7.13;;;1.00;;
54193;SDS011;40102;50.906;6.972;2023-11-19T04:31:36;7.57;;;1.75;;
54193;SDS011;40102;50.906;6.972;2023-11-19T04:34:05;6.88;;;1.15;;
54193;SDS011;40102;50.906;6.972;2023-11-19T04:36:34;10.18;;;1.23;;
54193;SDS011;40102;50.906;6.972;2023-11-19T04:39:00;7.38;;;1.60;;
54193;SDS011;40102;50.906;6.972;2023-11-19T04:41:26;6.00;;;1.50;;
54193;SDS011;40102;50.906;6.972;2023-11-19T04:43:54;10.70;;;1.40;;
54193;SDS011;40102;50.906;6.972;2023-11-19T04:46:20;7.53;;;1.60;;
54193;SDS011;40102;50.906;6.972;2023-11-19T04:48:45;13.93;;;2.38;;
54193;SDS011;40102;50.906;6.972;2023-11-19T04:51:11;14.00;;;1.90;;
54193;SDS011;40102;50.906;6.972;2023-11-19T04:53:36;5.68;;;1.30;;
54193;SDS011;40102;50.906;6.972;2023-11-19T04:56:07;11.23;;;2.13;;
54193;SDS011;40102;50.906;6.972;2023-11-19T04:58:34;7.00;;;1.48;;
54193;SDS011;40102;50.906;6.972;2023-11-19T05:01:00;4.63;;;1.73;;
54193;SDS011;40102;50.906;6.972;2023-11-19T05:03:26;7.65;;;1.30;;
54193;SDS011;40102;50.906;6.972;2023-11-19T05:05:52;8.68;;;1.40;;
54193;SDS011;40102;50.906;6.972;2023-11-19T05:08:17;8.88;;;1.55;;
54193;SDS011;40102;50.906;6.972;2023-11-19T05:10:42;9.00;;;1.58;;
54193;SDS011;40102;50.906;6.972;2023-11-19T05:13:08;10.70;;;1.70;;
54193;SDS011;40102;50.906;6.972;2023-11-19T05:15:33;6.55;;;1.50;;
54193;SDS011;40102;50.906;6.972;2023-11-19T05:17:59;6.78;;;1.20;;
54193;SDS011;40102;50.906;6.972;2023-11-19T05:20:24;11.75;;;2.00;;
54193;SDS011;40102;50.906;6.972;2023-11-19T05:22:49;11.70;;;2.03;;
54193;SDS011;40102;50.906;6.972;2023-11-19T05:25:16;8.82;;;1.80;;
54193;SDS011;40102;50.906;6.972;2023-11-19T05:27:42;7.57;;;1.40;;
54193;SDS011;40102;50.906;6.972;2023-11-19T05:30:07;5.95;;;1.20;;
54193;SDS011;40102;50.906;6.972;2023-11-19T05:32:33;8.52;;;1.40;;
54193;SDS011;40102;50.906;6.972;2023-11-19T05:34:59;4.65;;;1.23;;
54193;SDS011;40102;50.906;6.972;2023-11-19T05:37:24;14.00;;;1.42;;
54193;SDS011;40102;50.906;6.972;2023-11-19T05:39:50;8.55;;;1.60;;
54193;SDS011;40102;50.906;6.972;2023-11-19T05:42:15;9.63;;;1.30;;
54193;SDS011;40102;50.906;6.972;2023-11-19T05:44:41;8.20;;;1.70;;
54193;SDS011;40102;50.906;6.972;2023-11-19T05:47:06;8.45;;;1.45;;
54193;SDS011;40102;50.906;6.972;2023-11-19T05:49:32;12.93;;;1.77;;
54193;SDS011;40102;50.906;6.972;2023-11-19T05:51:58;14.35;;;2.17;;
54193;SDS011;40102;50.906;6.972;2023-11-19T05:54:23;15.95;;;2.08;;
54193;SDS011;40102;50.906;6.972;2023-11-19T05:56:48;10.00;;;1.65;;
54193;SDS011;40102;50.906;6.972;2023-11-19T05:59:14;13.40;;;2.17;;
54193;SDS011;40102;50.906;6.972;2023-11-19T06:01:42;9.57;;;1.75;;
54193;SDS011;40102;50.906;6.972;2023-11-19T06:04:11;12.90;;;1.33;;
54193;SDS011;40102;50.906;6.972;2023-11-19T06:06:37;11.15;;;1.83;;
54193;SDS011;40102;50.906;6.972;2023-11-19T06:09:03;13.95;;;1.98;;
54193;SDS011;40102;50.906;6.972;2023-11-19T06:11:29;18.13;;;2.58;;
54193;SDS011;40102;50.906;6.972;2023-11-19T06:13:54;9.52;;;2.00;;
54193;SDS011;40102;50.906;6.972;2023-11-19T06:16:20;15.77;;;1.85;;
54193;SDS011;40102;50.906;6.972;2023-11-19T06:18:45;12.38;;;2.20;;
54193;SDS011;40102;50.906;6.972;2023-11-19T06:21:11;10.25;;;2.47;;
54193;SDS011;40102;50.906;6.972;2023-11-19T06:23:37;10.38;;;1.85;;
54193;SDS011;40102;50.906;6.972;2023-11-19T06:26:03;12.00;;;1.83;;
54193;SDS011;40102;50.906;6.972;2023-11-19T06:28:30;19.52;;;2.20;;
54193;SDS011;40102;50.906;6.972;2023-11-19T06:30:55;8.85;;;1.70;;
54193;SDS011;40102;50.906;6.972;2023-11-19T06:33:22;16.77;;;2.97;;
54193;SDS011;40102;50.906;6.972;2023-11-19T06:35:48;13.07;;;2.22;;
54193;SDS011;40102;50.906;6.972;2023-11-19T06:38:14;12.95;;;2.22;;
54193;SDS011;40102;50.906;6.972;2023-11-19T06:40:39;18.42;;;2.55;;
54193;SDS011;40102;50.906;6.972;2023-11-19T06:43:08;14.85;;;1.95;;
54193;SDS011;40102;50.906;6.972;2023-11-19T06:45:34;14.23;;;2.10;;
54193;SDS011;40102;50.906;6.972;2023-11-19T06:48:03;14.23;;;2.15;;
54193;SDS011;40102;50.906;6.972;2023-11-19T06:50:30;11.82;;;2.28;;
54193;SDS011;40102;50.906;6.972;2023-11-19T06:52:56;16.33;;;2.63;;
54193;SDS011;40102;50.906;6.972;2023-11-19T06:55:21;9.35;;;1.85;;
54193;SDS011;40102;50.906;6.972;2023-11-19T06:57:47;16.27;;;1.85;;
54193;SDS011;40102;50.906;6.972;2023-11-19T07:00:12;8.85;;;1.88;;
54193;SDS011;40102;50.906;6.972;2023-11-19T07:02:41;12.07;;;1.95;;
54193;SDS011;40102;50.906;6.972;2023-11-19T07:05:07;17.73;;;2.53;;
54193;SDS011;40102;50.906;6.972;2023-11-19T07:07:38;17.10;;;2.67;;
54193;SDS011;40102;50.906;6.972;2023-11-19T07:10:18;9.68;;;2.03;;
54193;SDS011;40102;50.906;6.972;2023-11-19T07:12:43;17.55;;;2.20;;
54193;SDS011;40102;50.906;6.972;2023-11-19T07:15:09;16.08;;;2.13;;
54193;SDS011;40102;50.906;6.972;2023-11-19T07:17:35;10.15;;;1.85;;
54193;SDS011;40102;50.906;6.972;2023-11-19T07:20:01;7.32;;;1.45;;
54193;SDS011;40102;50.906;6.972;2023-11-19T07:22:27;16.42;;;2.35;;
54193;SDS011;40102;50.906;6.972;2023-11-19T07:24:55;9.85;;;1.95;;
54193;SDS011;40102;50.906;6.972;2023-11-19T07:27:23;15.57;;;2.08;;
54193;SDS011;40102;50.906;6.972;2023-11-19T07:29:49;8.40;;;1.70;;
54193;SDS011;40102;50.906;6.972;2023-11-19T07:32:14;14.55;;;2.17;;
54193;SDS011;40102;50.906;6.972;2023-11-19T07:34:40;10.75;;;2.10;;
54193;SDS011;40102;50.906;6.972;2023-11-19T07:37:50;9.13;;;2.45;;
54193;SDS011;40102;50.906;6.972;2023-11-19T07:39:58;25.63;;;4.40;;
54193;SDS011;40102;50.906;6.972;2023-11-19T07:42:23;13.70;;;2.30;;
54193;SDS011;40102;50.906;6.972;2023-11-19T07:44:49;11.85;;;2.03;;
54193;SDS011;40102;50.906;6.972;2023-11-19T07:47:14;16.70;;;2.20;;
54193;SDS011;40102;50.906;6.972;2023-11-19T07:49:39;14.38;;;2.30;;
54193;SDS011;40102;50.906;6.972;2023-11-19T07:52:05;14.57;;;2.10;;
54193;SDS011;40102;50.906;6.972;2023-11-19T07:54:30;16.00;;;2.95;;
54193;SDS011;40102;50.906;6.972;2023-11-19T07:56:55;13.23;;;2.15;;
54193;SDS011;40102;50.906;6.972;2023-11-19T07:59:21;22.23;;;2.20;;
54193;SDS011;40102;50.906;6.972;2023-11-19T08:01:46;14.80;;;2.25;;
54193;SDS011;40102;50.906;6.972;2023-11-19T08:04:11;10.57;;;1.60;;
54193;SDS011;40102;50.906;6.972;2023-11-19T08:06:37;15.15;;;2.42;;
54193;SDS011;40102;50.906;6.972;2023-11-19T08:09:02;13.95;;;2.13;;
54193;SDS011;40102;50.906;6.972;2023-11-19T08:11:28;17.52;;;2.10;;
54193;SDS011;40102;50.906;6.972;2023-11-19T08:13:53;14.07;;;2.20;;
54193;SDS011;40102;50.906;6.972;2023-11-19T08:16:18;13.02;;;1.92;;
54193;SDS011;40102;50.906;6.972;2023-11-19T08:18:52;14.65;;;2.35;;
54193;SDS011;40102;50.906;6.972;2023-11-19T08:21:18;16.63;;;2.20;;
54193;SDS011;40102;50.906;6.972;2023-11-19T08:23:45;7.28;;;1.52;;
54193;SDS011;40102;50.906;6.972;2023-11-19T08:26:10;14.65;;;2.22;;
54193;SDS011;40102;50.906;6.972;2023-11-19T08:28:36;18.65;;;2.53;;
54193;SDS011;40102;50.906;6.972;2023-11-19T08:31:02;12.13;;;1.90;;
54193;SDS011;40102;50.906;6.972;2023-11-19T08:33:31;16.30;;;2.20;;
54193;SDS011;40102;50.906;6.972;2023-11-19T08:35:56;13.70;;;2.17;;
54193;SDS011;40102;50.906;6.972;2023-11-19T08:38:23;16.05;;;2.33;;
54193;SDS011;40102;50.906;6.972;2023-11-19T08:40:49;15.02;;;2.28;;
54193;SDS011;40102;50.906;6.972;2023-11-19T08:43:14;10.65;;;2.15;;
54193;SDS011;40102;50.906;6.972;2023-11-19T08:45:39;14.02;;;2.03;;
54193;SDS011;40102;50.906;6.972;2023-11-19T08:48:05;11.80;;;1.83;;
54193;SDS011;40102;50.906;6.972;2023-11-19T08:50:30;14.60;;;2.50;;
54193;SDS011;40102;50.906;6.972;2023-11-19T08:52:55;12.85;;;2.50;;
54193;SDS011;40102;50.906;6.972;2023-11-19T08:55:21;13.40;;;2.42;;
54193;SDS011;40102;50.906;6.972;2023-11-19T08:57:46;16.50;;;2.42;;
54193;SDS011;40102;50.906;6.972;2023-11-19T09:00:12;18.50;;;2.25;;
54193;SDS011;40102;50.906;6.972;2023-11-19T09:02:39;15.35;;;2.08;;
54193;SDS011;40102;50.906;6.972;2023-11-19T09:05:04;16.45;;;2.28;;
54193;SDS011;40102;50.906;6.972;2023-11-19T09:07:32;10.85;;;1.95;;
54193;SDS011;40102;50.906;6.972;2023-11-19T09:09:57;15.73;;;2.30;;
54193;SDS011;40102;50.906;6.972;2023-11-19T09:12:23;15.73;;;2.20;;
54193;SDS011;40102;50.906;6.972;2023-11-19T09:14:48;11.45;;;2.15;;
54193;SDS011;40102;50.906;6.972;2023-11-19T09:17:14;11.90;;;1.73;;
54193;SDS011;40102;50.906;6.972;2023-11-19T09:19:40;19.75;;;2.00;;
54193;SDS011;40102;50.906;6.972;2023-11-19T09:22:06;11.50;;;1.85;;
54193;SDS011;40102;50.906;6.972;2023-11-19T09:24:31;15.40;;;1.88;;
54193;SDS011;40102;50.906;6.972;2023-11-19T09:26:56;12.77;;;2.33;;
54193;SDS011;40102;50.906;6.972;2023-11-19T09:29:22;15.02;;;2.95;;
54193;SDS011;40102;50.906;6.972;2023-11-19T09:31:47;17.30;;;2.47;;
54193;SDS011;40102;50.906;6.972;2023-11-19T09:34:13;13.68;;;1.83;;
54193;SDS011;40102;50.906;6.972;2023-11-19T09:36:38;12.95;;;1.83;;
54193;SDS011;40102;50.906;6.972;2023-11-19T09:39:08;17.95;;;2.55;;
54193;SDS011;40102;50.906;6.972;2023-11-19T09:41:34;14.32;;;2.90;;
54193;SDS011;40102;50.906;6.972;2023-11-19T09:43:59;15.77;;;2.15;;
54193;SDS011;40102;50.906;6.972;2023-11-19T09:46:25;15.00;;;1.52;;
54193;SDS011;40102;50.906;6.972;2023-11-19T09:48:54;16.88;;;2.00;;
54193;SDS011;40102;50.906;6.972;2023-11-19T09:51:22;11.80;;;1.98;;
54193;SDS011;40102;50.906;6.972;2023-11-19T09:53:48;15.63;;;1.98;;
54193;SDS011;40102;50.906;6.972;2023-11-19T09:56:14;14.35;;;1.92;;
54193;SDS011;40102;50.906;6.972;2023-11-19T09:58:41;13.25;;;1.98;;
54193;SDS011;40102;50.906;6.972;2023-11-19T10:01:07;10.75;;;1.60;;
54193;SDS011;40102;50.906;6.972;2023-11-19T10:03:35;11.52;;;2.10;;
54193;SDS011;40102;50.906;6.972;2023-11-19T10:06:03;13.25;;;1.70;;
54193;SDS011;40102;50.906;6.972;2023-11-19T10:08:29;16.63;;;2.75;;
54193;SDS011;40102;50.906;6.972;2023-11-19T10:10:54;14.50;;;1.95;;
54193;SDS011;40102;50.906;6.972;2023-11-19T10:13:20;10.63;;;1.50;;
54193;SDS011;40102;50.906;6.972;2023-11-19T10:15:51;11.48;;;1.88;;
54193;SDS011;40102;50.906;6.972;2023-11-19T10:18:17;14.93;;;2.10;;
54193;SDS011;40102;50.906;6.972;2023-11-19T10:20:43;22.27;;;2.92;;
54193;SDS011;40102;50.906;6.972;2023-11-19T10:23:09;13.60;;;2.03;;
54193;SDS011;40102;50.906;6.972;2023-11-19T10:25:36;12.48;;;1.90;;
54193;SDS011;40102;50.906;6.972;2023-11-19T10:28:01;13.73;;;2.00;;
54193;SDS011;40102;50.906;6.972;2023-11-19T10:30:28;19.15;;;2.08;;
54193;SDS011;40102;50.906;6.972;2023-11-19T10:33:04;13.57;;;2.60;;
54193;SDS011;40102;50.906;6.972;2023-11-19T10:35:33;14.50;;;2.00;;
54193;SDS011;40102;50.906;6.972;2023-11-19T10:38:15;15.63;;;1.95;;
54193;SDS011;40102;50.906;6.972;2023-11-19T10:40:41;19.77;;;2.83;;
54193;SDS011;40102;50.906;6.972;2023-11-19T10:43:07;11.40;;;2.03;;
54193;SDS011;40102;50.906;6.972;2023-11-19T10:45:33;14.82;;;2.90;;
54193;SDS011;40102;50.906;6.972;2023-11-19T10:47:59;14.52;;;2.40;;
54193;SDS011;40102;50.906;6.972;2023-11-19T10:50:25;13.05;;;1.58;;
54193;SDS011;40102;50.906;6.972;2023-11-19T10:52:52;14.60;;;1.85;;
54193;SDS011;40102;50.906;6.972;2023-11-19T10:55:25;6.82;;;1.30;;
54193;SDS011;40102;50.906;6.972;2023-11-19T10:57:53;12.23;;;1.80;;
54193;SDS011;40102;50.906;6.972;2023-11-19T11:00:23;9.27;;;1.83;;
54193;SDS011;40102;50.906;6.972;2023-11-19T11:02:50;12.48;;;2.13;;
54193;SDS011;40102;50.906;6.972;2023-11-19T11:05:21;15.18;;;1.77;;
54193;SDS011;40102;50.906;6.972;2023-11-19T11:07:47;8.98;;;1.73;;
54193;SDS011;40102;50.906;6.972;2023-11-19T11:10:14;12.02;;;2.08;;
54193;SDS011;40102;50.906;6.972;2023-11-19T11:12:41;14.57;;;1.88;;
54193;SDS011;40102;50.906;6.972;2023-11-19T11:15:08;14.93;;;1.90;;
54193;SDS011;40102;50.906;6.972;2023-11-19T11:17:37;10.85;;;1.95;;
54193;SDS011;40102;50.906;6.972;2023-11-19T11:20:05;15.93;;;2.72;;
54193;SDS011;40102;50.906;6.972;2023-11-19T11:22:34;13.50;;;2.00;;
54193;SDS011;40102;50.906;6.972;2023-11-19T11:25:28;8.38;;;1.70;;
54193;SDS011;40102;50.906;6.972;2023-11-19T11:28:01;13.13;;;2.28;;
54193;SDS011;40102;50.906;6.972;2023-11-19T11:33:41;11.00;;;2.42;;
54193;SDS011;40102;50.906;6.972;2023-11-19T11:36:25;15.90;;;2.67;;
54193;SDS011;40102;50.906;6.972;2023-11-19T11:38:51;10.40;;;1.88;;
54193;SDS011;40102;50.906;6.972;2023-11-19T11:41:21;9.35;;;1.75;;
54193;SDS011;40102;50.906;6.972;2023-11-19T11:43:48;6.30;;;1.40;;
54193;SDS011;40102;50.906;6.972;2023-11-19T11:46:58;21.77;;;2.60;;
54193;SDS011;40102;50.906;6.972;2023-11-19T11:49:05;9.52;;;1.80;;
54193;SDS011;40102;50.906;6.972;2023-11-19T11:54:10;7.28;;;1.50;;
54193;SDS011;40102;50.906;6.972;2023-11-19T11:56:39;8.02;;;1.70;;
54193;SDS011;40102;50.906;6.972;2023-11-19T11:59:08;9.70;;;1.45;;
54193;SDS011;40102;50.906;6.972;2023-11-19T12:01:57;11.90;;;1.85;;
54193;SDS011;40102;50.906;6.972;2023-11-19T12:04:25;7.20;;;1.23;;
54193;SDS011;40102;50.906;6.972;2023-11-19T12:09:46;10.07;;;1.42;;
54193;SDS011;40102;50.906;6.972;2023-11-19T12:12:22;9.73;;;1.63;;
54193;SDS011;40102;50.906;6.972;2023-11-19T12:20:01;7.25;;;1.50;;
54193;SDS011;40102;50.906;6.972;2023-11-19T12:22:27;10.88;;;1.52;;
54193;SDS011;40102;50.906;6.972;2023-11-19T12:24:53;14.20;;;2.65;;
54193;SDS011;40102;50.906;6.972;2023-11-19T12:27:19;16.05;;;1.63;;
54193;SDS011;40102;50.906;6.972;2023-11-19T12:29:47;13.85;;;2.20;;
54193;SDS011;40102;50.906;6.972;2023-11-19T12:32:13;5.18;;;1.98;;
54193;SDS011;40102;50.906;6.972;2023-11-19T12:34:38;9.35;;;1.60;;
54193;SDS011;40102;50.906;6.972;2023-11-19T12:37:04;16.67;;;1.60;;
54193;SDS011;40102;50.906;6.972;2023-11-19T12:39:30;9.88;;;1.52;;
54193;SDS011;40102;50.906;6.972;2023-11-19T12:41:55;10.50;;;1.77;;
54193;SDS011;40102;50.906;6.972;2023-11-19T12:44:24;11.05;;;1.75;;
54193;SDS011;40102;50.906;6.972;2023-11-19T12:47:02;10.82;;;1.65;;
54193;SDS011;40102;50.906;6.972;2023-11-19T12:49:29;8.80;;;1.77;;
54193;SDS011;40102;50.906;6.972;2023-11-19T12:51:54;10.32;;;1.45;;
54193;SDS011;40102;50.906;6.972;2023-11-19T12:54:20;8.60;;;1.33;;
54193;SDS011;40102;50.906;6.972;2023-11-19T12:56:52;8.15;;;1.55;;
54193;SDS011;40102;50.906;6.972;2023-11-19T12:59:17;8.48;;;1.30;;
54193;SDS011;40102;50.906;6.972;2023-11-19T13:01:53;9.55;;;1.20;;
54193;SDS011;40102;50.906;6.972;2023-11-19T13:04:21;11.70;;;1.58;;
54193;SDS011;40102;50.906;6.972;2023-11-19T13:06:47;10.77;;;1.20;;
54193;SDS011;40102;50.906;6.972;2023-11-19T13:09:22;7.78;;;1.63;;
54193;SDS011;40102;50.906;6.972;2023-11-19T13:11:52;6.97;;;1.17;;
54193;SDS011;40102;50.906;6.972;2023-11-19T13:14:35;12.80;;;1.20;;
54193;SDS011;40102;50.906;6.972;2023-11-19T13:17:02;13.93;;;1.48;;
54193;SDS011;40102;50.906;6.972;2023-11-19T13:19:28;8.95;;;1.42;;
54193;SDS011;40102;50.906;6.972;2023-11-19T13:21:53;8.68;;;1.27;;
54193;SDS011;40102;50.906;6.972;2023-11-19T13:24:19;10.98;;;1.77;;
54193;SDS011;40102;50.906;6.972;2023-11-19T13:26:44;8.48;;;1.35;;
54193;SDS011;40102;50.906;6.972;2023-11-19T13:29:09;12.30;;;1.95;;
54193;SDS011;40102;50.906;6.972;2023-11-19T13:31:35;12.02;;;2.22;;
54193;SDS011;40102;50.906;6.972;2023-11-19T13:34:01;9.52;;;1.52;;
54193;SDS011;40102;50.906;6.972;2023-11-19T13:36:29;11.45;;;1.60;;
54193;SDS011;40102;50.906;6.972;2023-11-19T13:38:54;9.93;;;1.65;;
54193;SDS011;40102;50.906;6.972;2023-11-19T13:41:24;12.57;;;1.65;;
54193;SDS011;40102;50.906;6.972;2023-11-19T13:43:50;11.93;;;1.77;;
54193;SDS011;40102;50.906;6.972;2023-11-19T13:46:15;11.82;;;1.67;;
54193;SDS011;40102;50.906;6.972;2023-11-19T13:48:41;10.25;;;1.55;;
54193;SDS011;40102;50.906;6.972;2023-11-19T13:51:06;5.72;;;1.50;;
54193;SDS011;40102;50.906;6.972;2023-11-19T13:53:35;11.25;;;1.63;;
54193;SDS011;40102;50.906;6.972;2023-11-19T13:56:00;11.90;;;2.45;;
54193;SDS011;40102;50.906;6.972;2023-11-19T13:58:26;13.07;;;2.30;;
54193;SDS011;40102;50.906;6.972;2023-11-19T14:00:51;16.17;;;1.95;;
54193;SDS011;40102;50.906;6.972;2023-11-19T14:03:16;15.55;;;1.40;;
54193;SDS011;40102;50.906;6.972;2023-11-19T14:05:45;7.75;;;1.73;;
54193;SDS011;40102;50.906;6.972;2023-11-19T14:08:10;11.82;;;2.03;;
54193;SDS011;40102;50.906;6.972;2023-11-19T14:10:38;13.75;;;1.70;;
54193;SDS011;40102;50.906;6.972;2023-11-19T14:13:05;9.00;;;1.50;;
54193;SDS011;40102;50.906;6.972;2023-11-19T14:15:34;13.50;;;2.55;;
54193;SDS011;40102;50.906;6.972;2023-11-19T14:18:00;17.15;;;1.90;;
54193;SDS011;40102;50.906;6.972;2023-11-19T14:20:26;10.65;;;1.38;;
54193;SDS011;40102;50.906;6.972;2023-11-19T14:22:52;12.27;;;1.50;;
54193;SDS011;40102;50.906;6.972;2023-11-19T14:25:17;9.93;;;2.08;;
54193;SDS011;40102;50.906;6.972;2023-11-19T14:27:43;7.68;;;1.48;;
54193;SDS011;40102;50.906;6.972;2023-11-19T14:30:10;9.32;;;1.38;;
54193;SDS011;40102;50.906;6.972;2023-11-19T14:32:36;12.00;;;1.95;;
54193;SDS011;40102;50.906;6.972;2023-11-19T14:35:06;10.52;;;1.73;;
54193;SDS011;40102;50.906;6.972;2023-11-19T14:37:32;5.95;;;1.38;;
54193;SDS011;40102;50.906;6.972;2023-11-19T14:39:58;9.65;;;1.52;;
54193;SDS011;40102;50.906;6.972;2023-11-19T14:42:24;7.32;;;1.15;;
54193;SDS011;40102;50.906;6.972;2023-11-19T14:44:50;8.13;;;1.40;;
54193;SDS011;40102;50.906;6.972;2023-11-19T14:47:21;8.48;;;1.67;;
54193;SDS011;40102;50.906;6.972;2023-11-19T14:49:47;9.57;;;1.30;;
54193;SDS011;40102;50.906;6.972;2023-11-19T14:52:12;10.65;;;1.50;;
54193;SDS011;40102;50.906;6.972;2023-11-19T14:54:38;8.50;;;1.67;;
54193;SDS011;40102;50.906;6.972;2023-11-19T14:57:04;8.05;;;1.90;;